sensor_id;sensor_type;location;lat;lon;timestamp;P1;durP1;ratioP1;P2;durP2;ratioP2
15946;SDS011;8072;52.554;7.966;2023-02-11T00:00:24;62.03;;;26.37;;
15946;SDS011;8072;52.554;7.966;2023-02-11T00:02:49;70.83;;;27.33;;
15946;SDS011;8072;52.554;7.966;2023-02-11T00:05:15;64.10;;;27.53;;
15946;SDS011;8072;52.554;7.966;2023-02-11T00:07:41;60.53;;;25.57;;
15946;SDS011;8072;52.554;7.966;2023-02-11T00:10:07;53.70;;;25.63;;
15946;SDS011;8072;52.554;7.966;2023-02-11T00:12:33;63.27;;;26.47;;
15946;SDS011;8072;52.554;7.966;2023-02-11T00:15:00;57.20;;;26.23;;
15946;SDS011;8072;52.554;7.966;2023-02-11T00:17:26;57.87;;;25.97;;
15946;SDS011;8072;52.554;7.966;2023-02-11T00:19:52;60.37;;;26.30;;
15946;SDS011;8072;52.554;7.966;2023-02-11T00:22:17;63.27;;;25.70;;
15946;SDS011;8072;52.554;7.966;2023-02-11T00:24:43;62.07;;;26.70;;
15946;SDS011;8072;52.554;7.966;2023-02-11T00:27:09;64.23;;;26.63;;
15946;SDS011;8072;52.554;7.966;2023-02-11T00:29:36;62.23;;;24.37;;
15946;SDS011;8072;52.554;7.966;2023-02-11T00:32:03;56.70;;;25.10;;
15946;SDS011;8072;52.554;7.966;2023-02-11T00:34:30;65.27;;;26.47;;
15946;SDS011;8072;52.554;7.966;2023-02-11T00:36:56;54.27;;;25.67;;
15946;SDS011;8072;52.554;7.966;2023-02-11T00:39:22;60.43;;;25.10;;
15946;SDS011;8072;52.554;7.966;2023-02-11T00:41:47;56.57;;;24.90;;
15946;SDS011;8072;52.554;7.966;2023-02-11T00:44:13;55.03;;;23.83;;
15946;SDS011;8072;52.554;7.966;2023-02-11T00:46:39;56.80;;;24.50;;
15946;SDS011;8072;52.554;7.966;2023-02-11T00:49:04;48.83;;;22.40;;
15946;SDS011;8072;52.554;7.966;2023-02-11T00:51:30;51.30;;;23.37;;
15946;SDS011;8072;52.554;7.966;2023-02-11T00:53:56;57.03;;;24.40;;
15946;SDS011;8072;52.554;7.966;2023-02-11T00:56:22;54.13;;;23.60;;
15946;SDS011;8072;52.554;7.966;2023-02-11T00:58:48;53.27;;;23.83;;
15946;SDS011;8072;52.554;7.966;2023-02-11T01:01:13;54.87;;;24.03;;
15946;SDS011;8072;52.554;7.966;2023-02-11T01:03:39;65.70;;;25.63;;
15946;SDS011;8072;52.554;7.966;2023-02-11T01:06:06;55.13;;;24.33;;
15946;SDS011;8072;52.554;7.966;2023-02-11T01:08:33;55.07;;;25.73;;
15946;SDS011;8072;52.554;7.966;2023-02-11T01:11:01;53.73;;;25.20;;
15946;SDS011;8072;52.554;7.966;2023-02-11T01:13:29;53.10;;;23.03;;
15946;SDS011;8072;52.554;7.966;2023-02-11T01:15:57;55.17;;;24.77;;
15946;SDS011;8072;52.554;7.966;2023-02-11T01:18:23;56.27;;;24.10;;
15946;SDS011;8072;52.554;7.966;2023-02-11T01:20:50;54.73;;;24.57;;
15946;SDS011;8072;52.554;7.966;2023-02-11T01:23:16;56.03;;;24.20;;
15946;SDS011;8072;52.554;7.966;2023-02-11T01:25:42;54.87;;;23.83;;
15946;SDS011;8072;52.554;7.966;2023-02-11T01:28:13;51.23;;;23.93;;
15946;SDS011;8072;52.554;7.966;2023-02-11T01:30:44;52.37;;;24.77;;
15946;SDS011;8072;52.554;7.966;2023-02-11T01:33:10;65.17;;;24.90;;
15946;SDS011;8072;52.554;7.966;2023-02-11T01:35:37;62.93;;;25.77;;
15946;SDS011;8072;52.554;7.966;2023-02-11T01:38:03;50.53;;;24.17;;
15946;SDS011;8072;52.554;7.966;2023-02-11T01:40:30;51.57;;;24.80;;
15946;SDS011;8072;52.554;7.966;2023-02-11T01:42:56;58.40;;;24.33;;
15946;SDS011;8072;52.554;7.966;2023-02-11T01:48:24;61.47;;;25.70;;
15946;SDS011;8072;52.554;7.966;2023-02-11T01:50:56;49.53;;;23.47;;
15946;SDS011;8072;52.554;7.966;2023-02-11T01:53:44;56.60;;;24.80;;
15946;SDS011;8072;52.554;7.966;2023-02-11T01:56:30;56.87;;;23.73;;
15946;SDS011;8072;52.554;7.966;2023-02-11T01:59:16;57.17;;;22.73;;
15946;SDS011;8072;52.554;7.966;2023-02-11T02:01:56;51.70;;;23.37;;
15946;SDS011;8072;52.554;7.966;2023-02-11T02:04:27;58.37;;;25.40;;
15946;SDS011;8072;52.554;7.966;2023-02-11T02:07:04;57.87;;;23.93;;
15946;SDS011;8072;52.554;7.966;2023-02-11T02:09:39;57.97;;;23.70;;
15946;SDS011;8072;52.554;7.966;2023-02-11T02:12:07;55.27;;;23.40;;
15946;SDS011;8072;52.554;7.966;2023-02-11T02:14:36;49.37;;;23.13;;
15946;SDS011;8072;52.554;7.966;2023-02-11T02:17:03;48.90;;;23.70;;
15946;SDS011;8072;52.554;7.966;2023-02-11T02:19:35;52.50;;;22.53;;
15946;SDS011;8072;52.554;7.966;2023-02-11T02:25:19;53.10;;;22.97;;
15946;SDS011;8072;52.554;7.966;2023-02-11T02:30:56;57.17;;;23.27;;
15946;SDS011;8072;52.554;7.966;2023-02-11T02:33:48;56.20;;;22.43;;
15946;SDS011;8072;52.554;7.966;2023-02-11T02:41:25;53.73;;;22.53;;
15946;SDS011;8072;52.554;7.966;2023-02-11T02:43:56;51.27;;;23.07;;
15946;SDS011;8072;52.554;7.966;2023-02-11T02:46:25;52.33;;;22.83;;
15946;SDS011;8072;52.554;7.966;2023-02-11T02:48:55;49.37;;;21.63;;
15946;SDS011;8072;52.554;7.966;2023-02-11T03:02:41;53.90;;;21.50;;
15946;SDS011;8072;52.554;7.966;2023-02-11T03:08:01;52.30;;;21.17;;
15946;SDS011;8072;52.554;7.966;2023-02-11T03:11:08;43.23;;;20.10;;
15946;SDS011;8072;52.554;7.966;2023-02-11T03:13:35;53.37;;;20.83;;
15946;SDS011;8072;52.554;7.966;2023-02-11T03:16:07;46.10;;;19.93;;
15946;SDS011;8072;52.554;7.966;2023-02-11T03:18:40;46.33;;;19.87;;
15946;SDS011;8072;52.554;7.966;2023-02-11T03:21:08;42.03;;;18.97;;
15946;SDS011;8072;52.554;7.966;2023-02-11T03:23:40;50.07;;;18.80;;
15946;SDS011;8072;52.554;7.966;2023-02-11T03:35:09;44.37;;;19.07;;
15946;SDS011;8072;52.554;7.966;2023-02-11T03:40:04;44.00;;;19.63;;
15946;SDS011;8072;52.554;7.966;2023-02-11T03:42:35;45.90;;;19.63;;
15946;SDS011;8072;52.554;7.966;2023-02-11T03:45:11;37.67;;;18.53;;
15946;SDS011;8072;52.554;7.966;2023-02-11T03:47:40;41.57;;;17.60;;
15946;SDS011;8072;52.554;7.966;2023-02-11T03:50:11;45.70;;;18.90;;
15946;SDS011;8072;52.554;7.966;2023-02-11T03:52:39;45.63;;;19.00;;
15946;SDS011;8072;52.554;7.966;2023-02-11T03:55:07;39.67;;;18.03;;
15946;SDS011;8072;52.554;7.966;2023-02-11T03:57:37;39.60;;;17.63;;
15946;SDS011;8072;52.554;7.966;2023-02-11T04:00:03;39.10;;;17.77;;
15946;SDS011;8072;52.554;7.966;2023-02-11T04:02:32;37.73;;;17.10;;
15946;SDS011;8072;52.554;7.966;2023-02-11T04:05:00;40.70;;;17.73;;
15946;SDS011;8072;52.554;7.966;2023-02-11T04:07:27;31.93;;;15.43;;
15946;SDS011;8072;52.554;7.966;2023-02-11T04:09:56;38.60;;;16.60;;
15946;SDS011;8072;52.554;7.966;2023-02-11T04:12:22;40.70;;;17.50;;
15946;SDS011;8072;52.554;7.966;2023-02-11T04:14:49;34.77;;;18.17;;
15946;SDS011;8072;52.554;7.966;2023-02-11T04:17:15;37.23;;;18.10;;
15946;SDS011;8072;52.554;7.966;2023-02-11T04:19:41;38.40;;;17.60;;
15946;SDS011;8072;52.554;7.966;2023-02-11T04:22:07;33.73;;;16.90;;
15946;SDS011;8072;52.554;7.966;2023-02-11T04:24:33;42.93;;;17.60;;
15946;SDS011;8072;52.554;7.966;2023-02-11T04:26:59;35.87;;;17.70;;
15946;SDS011;8072;52.554;7.966;2023-02-11T04:29:25;39.93;;;17.87;;
15946;SDS011;8072;52.554;7.966;2023-02-11T04:31:52;42.20;;;18.23;;
15946;SDS011;8072;52.554;7.966;2023-02-11T04:34:18;41.03;;;17.63;;
15946;SDS011;8072;52.554;7.966;2023-02-11T04:36:44;42.03;;;18.53;;
15946;SDS011;8072;52.554;7.966;2023-02-11T04:39:10;43.13;;;18.33;;
15946;SDS011;8072;52.554;7.966;2023-02-11T04:41:36;38.67;;;17.33;;
15946;SDS011;8072;52.554;7.966;2023-02-11T04:44:07;37.67;;;17.93;;
15946;SDS011;8072;52.554;7.966;2023-02-11T04:46:33;37.83;;;17.73;;
15946;SDS011;8072;52.554;7.966;2023-02-11T04:48:58;37.33;;;17.97;;
15946;SDS011;8072;52.554;7.966;2023-02-11T04:51:24;39.87;;;17.13;;
15946;SDS011;8072;52.554;7.966;2023-02-11T04:53:50;44.50;;;17.53;;
15946;SDS011;8072;52.554;7.966;2023-02-11T04:56:16;42.10;;;17.77;;
15946;SDS011;8072;52.554;7.966;2023-02-11T04:58:41;37.13;;;17.77;;
15946;SDS011;8072;52.554;7.966;2023-02-11T05:01:08;41.03;;;17.87;;
15946;SDS011;8072;52.554;7.966;2023-02-11T05:03:35;38.13;;;17.40;;
15946;SDS011;8072;52.554;7.966;2023-02-11T05:06:02;38.80;;;17.43;;
15946;SDS011;8072;52.554;7.966;2023-02-11T05:08:28;39.60;;;17.60;;
15946;SDS011;8072;52.554;7.966;2023-02-11T05:10:54;41.70;;;17.83;;
15946;SDS011;8072;52.554;7.966;2023-02-11T05:13:20;37.87;;;17.20;;
15946;SDS011;8072;52.554;7.966;2023-02-11T05:15:46;42.10;;;18.03;;
15946;SDS011;8072;52.554;7.966;2023-02-11T05:18:11;37.80;;;17.50;;
15946;SDS011;8072;52.554;7.966;2023-02-11T05:20:39;36.27;;;18.07;;
15946;SDS011;8072;52.554;7.966;2023-02-11T05:23:05;38.67;;;18.17;;
15946;SDS011;8072;52.554;7.966;2023-02-11T05:25:31;34.37;;;16.27;;
15946;SDS011;8072;52.554;7.966;2023-02-11T05:27:57;44.80;;;18.40;;
15946;SDS011;8072;52.554;7.966;2023-02-11T05:30:23;42.07;;;17.73;;
15946;SDS011;8072;52.554;7.966;2023-02-11T05:32:48;42.53;;;17.60;;
15946;SDS011;8072;52.554;7.966;2023-02-11T05:35:14;39.83;;;17.47;;
15946;SDS011;8072;52.554;7.966;2023-02-11T05:37:40;36.97;;;17.63;;
15946;SDS011;8072;52.554;7.966;2023-02-11T05:40:06;42.07;;;18.40;;
15946;SDS011;8072;52.554;7.966;2023-02-11T05:42:32;45.83;;;18.30;;
15946;SDS011;8072;52.554;7.966;2023-02-11T05:44:58;42.70;;;17.90;;
15946;SDS011;8072;52.554;7.966;2023-02-11T05:47:24;36.93;;;17.37;;
15946;SDS011;8072;52.554;7.966;2023-02-11T05:49:50;46.97;;;18.43;;
15946;SDS011;8072;52.554;7.966;2023-02-11T05:52:16;36.30;;;17.13;;
15946;SDS011;8072;52.554;7.966;2023-02-11T05:54:42;42.80;;;18.27;;
15946;SDS011;8072;52.554;7.966;2023-02-11T05:57:08;44.80;;;18.93;;
15946;SDS011;8072;52.554;7.966;2023-02-11T05:59:33;44.27;;;18.60;;
15946;SDS011;8072;52.554;7.966;2023-02-11T06:01:59;44.00;;;18.23;;
15946;SDS011;8072;52.554;7.966;2023-02-11T06:04:25;42.43;;;17.67;;
15946;SDS011;8072;52.554;7.966;2023-02-11T06:06:50;40.93;;;18.63;;
15946;SDS011;8072;52.554;7.966;2023-02-11T06:09:16;43.33;;;17.80;;
15946;SDS011;8072;52.554;7.966;2023-02-11T06:11:42;45.47;;;17.70;;
15946;SDS011;8072;52.554;7.966;2023-02-11T06:14:07;41.00;;;19.67;;
15946;SDS011;8072;52.554;7.966;2023-02-11T06:16:35;41.87;;;17.63;;
15946;SDS011;8072;52.554;7.966;2023-02-11T06:19:01;38.77;;;18.60;;
15946;SDS011;8072;52.554;7.966;2023-02-11T06:21:27;50.43;;;19.53;;
15946;SDS011;8072;52.554;7.966;2023-02-11T06:23:53;51.23;;;21.63;;
15946;SDS011;8072;52.554;7.966;2023-02-11T06:26:19;43.30;;;17.77;;
15946;SDS011;8072;52.554;7.966;2023-02-11T06:28:46;48.13;;;19.80;;
15946;SDS011;8072;52.554;7.966;2023-02-11T06:31:12;45.00;;;19.13;;
15946;SDS011;8072;52.554;7.966;2023-02-11T06:33:38;47.63;;;18.43;;
15946;SDS011;8072;52.554;7.966;2023-02-11T06:36:10;42.87;;;19.03;;
15946;SDS011;8072;52.554;7.966;2023-02-11T06:38:41;42.73;;;19.83;;
15946;SDS011;8072;52.554;7.966;2023-02-11T06:41:10;39.07;;;19.33;;
15946;SDS011;8072;52.554;7.966;2023-02-11T06:43:38;39.80;;;18.77;;
15946;SDS011;8072;52.554;7.966;2023-02-11T06:46:04;52.33;;;19.93;;
15946;SDS011;8072;52.554;7.966;2023-02-11T06:48:31;47.53;;;20.53;;
15946;SDS011;8072;52.554;7.966;2023-02-11T06:51:00;53.17;;;20.13;;
15946;SDS011;8072;52.554;7.966;2023-02-11T06:53:27;48.23;;;19.57;;
15946;SDS011;8072;52.554;7.966;2023-02-11T06:55:53;43.87;;;20.60;;
15946;SDS011;8072;52.554;7.966;2023-02-11T06:58:19;43.33;;;18.80;;
15946;SDS011;8072;52.554;7.966;2023-02-11T07:00:44;46.30;;;20.77;;
15946;SDS011;8072;52.554;7.966;2023-02-11T07:03:10;48.93;;;20.13;;
15946;SDS011;8072;52.554;7.966;2023-02-11T07:05:36;45.70;;;20.50;;
15946;SDS011;8072;52.554;7.966;2023-02-11T07:08:02;43.13;;;19.93;;
15946;SDS011;8072;52.554;7.966;2023-02-11T07:10:29;46.23;;;20.23;;
15946;SDS011;8072;52.554;7.966;2023-02-11T07:12:54;45.60;;;18.80;;
15946;SDS011;8072;52.554;7.966;2023-02-11T07:15:20;49.50;;;20.47;;
15946;SDS011;8072;52.554;7.966;2023-02-11T07:17:46;49.93;;;19.40;;
15946;SDS011;8072;52.554;7.966;2023-02-11T07:20:11;50.83;;;20.40;;
15946;SDS011;8072;52.554;7.966;2023-02-11T07:22:39;49.50;;;19.83;;
15946;SDS011;8072;52.554;7.966;2023-02-11T07:25:04;55.00;;;20.97;;
15946;SDS011;8072;52.554;7.966;2023-02-11T07:27:30;42.60;;;19.63;;
15946;SDS011;8072;52.554;7.966;2023-02-11T07:29:56;46.23;;;21.57;;
15946;SDS011;8072;52.554;7.966;2023-02-11T07:32:22;54.87;;;19.83;;
15946;SDS011;8072;52.554;7.966;2023-02-11T07:34:48;51.23;;;19.83;;
15946;SDS011;8072;52.554;7.966;2023-02-11T07:37:14;51.27;;;20.07;;
15946;SDS011;8072;52.554;7.966;2023-02-11T07:39:39;44.97;;;20.43;;
15946;SDS011;8072;52.554;7.966;2023-02-11T07:42:05;45.50;;;19.77;;
15946;SDS011;8072;52.554;7.966;2023-02-11T07:44:32;50.60;;;20.17;;
15946;SDS011;8072;52.554;7.966;2023-02-11T07:46:58;48.67;;;21.70;;
15946;SDS011;8072;52.554;7.966;2023-02-11T07:49:24;55.57;;;21.33;;
15946;SDS011;8072;52.554;7.966;2023-02-11T07:51:50;49.70;;;20.50;;
15946;SDS011;8072;52.554;7.966;2023-02-11T07:54:16;50.93;;;21.00;;
15946;SDS011;8072;52.554;7.966;2023-02-11T07:56:42;53.00;;;19.97;;
15946;SDS011;8072;52.554;7.966;2023-02-11T07:59:08;45.07;;;20.50;;
15946;SDS011;8072;52.554;7.966;2023-02-11T08:01:35;48.10;;;20.33;;
15946;SDS011;8072;52.554;7.966;2023-02-11T08:04:01;49.47;;;20.67;;
15946;SDS011;8072;52.554;7.966;2023-02-11T08:06:28;44.43;;;20.53;;
15946;SDS011;8072;52.554;7.966;2023-02-11T08:08:56;44.27;;;20.90;;
15946;SDS011;8072;52.554;7.966;2023-02-11T08:11:24;54.47;;;20.90;;
15946;SDS011;8072;52.554;7.966;2023-02-11T08:13:51;45.83;;;19.40;;
15946;SDS011;8072;52.554;7.966;2023-02-11T08:16:22;50.13;;;19.53;;
15946;SDS011;8072;52.554;7.966;2023-02-11T08:18:51;49.73;;;21.23;;
15946;SDS011;8072;52.554;7.966;2023-02-11T08:21:19;53.73;;;20.17;;
15946;SDS011;8072;52.554;7.966;2023-02-11T08:23:45;52.17;;;20.30;;
15946;SDS011;8072;52.554;7.966;2023-02-11T08:26:12;55.57;;;21.60;;
15946;SDS011;8072;52.554;7.966;2023-02-11T08:28:43;47.00;;;21.17;;
15946;SDS011;8072;52.554;7.966;2023-02-11T08:31:11;51.00;;;20.73;;
15946;SDS011;8072;52.554;7.966;2023-02-11T08:33:44;48.13;;;21.57;;
15946;SDS011;8072;52.554;7.966;2023-02-11T08:36:21;58.87;;;20.53;;
15946;SDS011;8072;52.554;7.966;2023-02-11T08:38:56;53.40;;;21.53;;
15946;SDS011;8072;52.554;7.966;2023-02-11T08:41:32;50.10;;;21.63;;
15946;SDS011;8072;52.554;7.966;2023-02-11T08:43:58;45.17;;;20.47;;
15946;SDS011;8072;52.554;7.966;2023-02-11T08:46:25;48.53;;;21.10;;
15946;SDS011;8072;52.554;7.966;2023-02-11T08:48:51;47.60;;;21.20;;
15946;SDS011;8072;52.554;7.966;2023-02-11T08:51:18;49.47;;;20.37;;
15946;SDS011;8072;52.554;7.966;2023-02-11T08:53:46;49.63;;;21.07;;
15946;SDS011;8072;52.554;7.966;2023-02-11T08:56:13;44.03;;;20.83;;
15946;SDS011;8072;52.554;7.966;2023-02-11T08:58:40;54.60;;;22.47;;
15946;SDS011;8072;52.554;7.966;2023-02-11T09:01:20;53.77;;;21.77;;
15946;SDS011;8072;52.554;7.966;2023-02-11T09:03:48;53.53;;;21.53;;
15946;SDS011;8072;52.554;7.966;2023-02-11T09:06:14;51.73;;;22.10;;
15946;SDS011;8072;52.554;7.966;2023-02-11T09:08:43;44.83;;;21.37;;
15946;SDS011;8072;52.554;7.966;2023-02-11T09:11:11;43.80;;;20.37;;
15946;SDS011;8072;52.554;7.966;2023-02-11T09:13:39;50.87;;;20.27;;
15946;SDS011;8072;52.554;7.966;2023-02-11T09:16:05;42.37;;;20.23;;
15946;SDS011;8072;52.554;7.966;2023-02-11T09:18:31;50.23;;;20.77;;
15946;SDS011;8072;52.554;7.966;2023-02-11T09:21:05;49.43;;;20.20;;
15946;SDS011;8072;52.554;7.966;2023-02-11T09:23:32;49.97;;;20.20;;
15946;SDS011;8072;52.554;7.966;2023-02-11T09:25:59;56.97;;;22.03;;
15946;SDS011;8072;52.554;7.966;2023-02-11T09:28:30;47.93;;;20.77;;
15946;SDS011;8072;52.554;7.966;2023-02-11T09:30:56;42.73;;;21.13;;
15946;SDS011;8072;52.554;7.966;2023-02-11T09:33:21;48.50;;;20.03;;
15946;SDS011;8072;52.554;7.966;2023-02-11T09:35:47;55.23;;;22.00;;
15946;SDS011;8072;52.554;7.966;2023-02-11T09:38:13;45.13;;;22.40;;
15946;SDS011;8072;52.554;7.966;2023-02-11T09:40:42;47.07;;;20.80;;
15946;SDS011;8072;52.554;7.966;2023-02-11T09:43:19;49.63;;;21.83;;
15946;SDS011;8072;52.554;7.966;2023-02-11T09:45:48;48.80;;;21.20;;
15946;SDS011;8072;52.554;7.966;2023-02-11T09:48:19;45.03;;;21.40;;
15946;SDS011;8072;52.554;7.966;2023-02-11T09:50:48;50.07;;;21.23;;
15946;SDS011;8072;52.554;7.966;2023-02-11T09:55:54;58.60;;;21.10;;
15946;SDS011;8072;52.554;7.966;2023-02-11T10:23:09;52.40;;;22.77;;
15946;SDS011;8072;52.554;7.966;2023-02-11T10:25:44;57.57;;;22.97;;
15946;SDS011;8072;52.554;7.966;2023-02-11T10:28:20;56.53;;;22.90;;
15946;SDS011;8072;52.554;7.966;2023-02-11T10:31:00;46.70;;;22.97;;
15946;SDS011;8072;52.554;7.966;2023-02-11T10:36:17;53.30;;;24.37;;
15946;SDS011;8072;52.554;7.966;2023-02-11T10:38:43;57.83;;;24.43;;
15946;SDS011;8072;52.554;7.966;2023-02-11T10:41:10;62.80;;;24.37;;
15946;SDS011;8072;52.554;7.966;2023-02-11T10:43:41;62.60;;;23.83;;
15946;SDS011;8072;52.554;7.966;2023-02-11T10:46:18;62.13;;;24.80;;
15946;SDS011;8072;52.554;7.966;2023-02-11T10:48:51;58.30;;;24.13;;
15946;SDS011;8072;52.554;7.966;2023-02-11T10:53:46;56.17;;;23.83;;
15946;SDS011;8072;52.554;7.966;2023-02-11T10:56:21;59.17;;;24.67;;
15946;SDS011;8072;52.554;7.966;2023-02-11T10:58:55;56.47;;;24.93;;
15946;SDS011;8072;52.554;7.966;2023-02-11T11:01:53;55.40;;;25.73;;
15946;SDS011;8072;52.554;7.966;2023-02-11T11:07:07;56.43;;;23.53;;
15946;SDS011;8072;52.554;7.966;2023-02-11T11:09:44;65.93;;;24.57;;
15946;SDS011;8072;52.554;7.966;2023-02-11T11:12:56;60.47;;;23.83;;
15946;SDS011;8072;52.554;7.966;2023-02-11T11:17:34;59.77;;;26.17;;
15946;SDS011;8072;52.554;7.966;2023-02-11T11:20:13;60.67;;;24.10;;
15946;SDS011;8072;52.554;7.966;2023-02-11T11:22:42;54.60;;;23.87;;
15946;SDS011;8072;52.554;7.966;2023-02-11T11:28:21;51.73;;;22.73;;
15946;SDS011;8072;52.554;7.966;2023-02-11T11:30:49;58.57;;;24.27;;
15946;SDS011;8072;52.554;7.966;2023-02-11T11:33:22;48.83;;;22.27;;
15946;SDS011;8072;52.554;7.966;2023-02-11T11:36:05;54.40;;;23.03;;
15946;SDS011;8072;52.554;7.966;2023-02-11T11:38:34;50.80;;;22.63;;
15946;SDS011;8072;52.554;7.966;2023-02-11T11:44:20;52.00;;;22.60;;
15946;SDS011;8072;52.554;7.966;2023-02-11T11:57:51;48.90;;;21.63;;
15946;SDS011;8072;52.554;7.966;2023-02-11T12:00:23;48.73;;;21.33;;
15946;SDS011;8072;52.554;7.966;2023-02-11T12:28:57;43.17;;;20.37;;
15946;SDS011;8072;52.554;7.966;2023-02-11T12:44:37;37.87;;;18.37;;
15946;SDS011;8072;52.554;7.966;2023-02-11T12:50:23;38.47;;;18.63;;
15946;SDS011;8072;52.554;7.966;2023-02-11T12:55:36;37.10;;;18.43;;
15946;SDS011;8072;52.554;7.966;2023-02-11T12:58:09;36.23;;;18.10;;
15946;SDS011;8072;52.554;7.966;2023-02-11T13:00:48;33.50;;;16.93;;
15946;SDS011;8072;52.554;7.966;2023-02-11T13:03:23;30.43;;;16.57;;
15946;SDS011;8072;52.554;7.966;2023-02-11T13:05:57;32.73;;;16.20;;
15946;SDS011;8072;52.554;7.966;2023-02-11T13:08:28;36.70;;;16.70;;
15946;SDS011;8072;52.554;7.966;2023-02-11T13:11:02;30.80;;;17.00;;
15946;SDS011;8072;52.554;7.966;2023-02-11T13:24:24;29.03;;;16.17;;
15946;SDS011;8072;52.554;7.966;2023-02-11T13:29:22;30.47;;;16.30;;
15946;SDS011;8072;52.554;7.966;2023-02-11T13:31:54;29.80;;;15.10;;
15946;SDS011;8072;52.554;7.966;2023-02-11T13:35:24;30.80;;;15.23;;
15946;SDS011;8072;52.554;7.966;2023-02-11T13:37:35;27.30;;;14.90;;
15946;SDS011;8072;52.554;7.966;2023-02-11T13:42:46;33.93;;;14.53;;
15946;SDS011;8072;52.554;7.966;2023-02-11T13:45:17;31.67;;;14.97;;
15946;SDS011;8072;52.554;7.966;2023-02-11T13:47:56;28.83;;;14.57;;
15946;SDS011;8072;52.554;7.966;2023-02-11T13:50:23;29.80;;;14.03;;
15946;SDS011;8072;52.554;7.966;2023-02-11T13:52:57;27.57;;;13.47;;
15946;SDS011;8072;52.554;7.966;2023-02-11T13:55:25;23.63;;;13.00;;
15946;SDS011;8072;52.554;7.966;2023-02-11T14:14:26;17.13;;;9.80;;
15946;SDS011;8072;52.554;7.966;2023-02-11T14:21:59;21.93;;;10.10;;
15946;SDS011;8072;52.554;7.966;2023-02-11T14:27:06;16.90;;;9.17;;
15946;SDS011;8072;52.554;7.966;2023-02-11T14:40:27;15.73;;;8.90;;
15946;SDS011;8072;52.554;7.966;2023-02-11T14:42:53;20.57;;;10.30;;
15946;SDS011;8072;52.554;7.966;2023-02-11T14:45:25;22.80;;;9.37;;
15946;SDS011;8072;52.554;7.966;2023-02-11T14:48:35;21.70;;;10.60;;
15946;SDS011;8072;52.554;7.966;2023-02-11T14:50:50;20.43;;;8.97;;
15946;SDS011;8072;52.554;7.966;2023-02-11T14:53:29;17.77;;;8.87;;
15946;SDS011;8072;52.554;7.966;2023-02-11T14:55:57;18.43;;;9.60;;
15946;SDS011;8072;52.554;7.966;2023-02-11T14:58:27;14.27;;;8.77;;
15946;SDS011;8072;52.554;7.966;2023-02-11T15:05:54;19.93;;;9.83;;
15946;SDS011;8072;52.554;7.966;2023-02-11T15:08:22;20.53;;;9.03;;
15946;SDS011;8072;52.554;7.966;2023-02-11T15:10:47;20.40;;;9.20;;
15946;SDS011;8072;52.554;7.966;2023-02-11T15:13:15;21.20;;;9.70;;
15946;SDS011;8072;52.554;7.966;2023-02-11T15:15:44;19.03;;;9.30;;
15946;SDS011;8072;52.554;7.966;2023-02-11T15:18:15;17.37;;;9.27;;
15946;SDS011;8072;52.554;7.966;2023-02-11T15:20:47;13.43;;;7.97;;
15946;SDS011;8072;52.554;7.966;2023-02-11T15:23:23;15.00;;;8.27;;
15946;SDS011;8072;52.554;7.966;2023-02-11T15:25:51;19.07;;;8.00;;
15946;SDS011;8072;52.554;7.966;2023-02-11T15:28:30;16.50;;;7.97;;
15946;SDS011;8072;52.554;7.966;2023-02-11T15:31:01;13.60;;;8.00;;
15946;SDS011;8072;52.554;7.966;2023-02-11T15:33:30;18.77;;;8.83;;
15946;SDS011;8072;52.554;7.966;2023-02-11T15:35:57;17.33;;;7.57;;
15946;SDS011;8072;52.554;7.966;2023-02-11T15:38:25;15.70;;;7.50;;
15946;SDS011;8072;52.554;7.966;2023-02-11T15:41:00;14.90;;;8.57;;
15946;SDS011;8072;52.554;7.966;2023-02-11T15:43:43;17.90;;;7.93;;
15946;SDS011;8072;52.554;7.966;2023-02-11T15:46:10;18.03;;;7.97;;
15946;SDS011;8072;52.554;7.966;2023-02-11T15:48:43;16.63;;;7.57;;
15946;SDS011;8072;52.554;7.966;2023-02-11T15:51:28;18.13;;;7.53;;
15946;SDS011;8072;52.554;7.966;2023-02-11T15:54:02;14.20;;;8.03;;
15946;SDS011;8072;52.554;7.966;2023-02-11T15:56:36;20.47;;;8.43;;
15946;SDS011;8072;52.554;7.966;2023-02-11T15:59:28;13.67;;;7.17;;
15946;SDS011;8072;52.554;7.966;2023-02-11T16:01:55;20.03;;;8.70;;
15946;SDS011;8072;52.554;7.966;2023-02-11T16:04:26;14.47;;;7.97;;
15946;SDS011;8072;52.554;7.966;2023-02-11T16:06:52;14.60;;;7.73;;
15946;SDS011;8072;52.554;7.966;2023-02-11T16:09:37;14.27;;;7.63;;
15946;SDS011;8072;52.554;7.966;2023-02-11T16:12:16;14.83;;;8.03;;
15946;SDS011;8072;52.554;7.966;2023-02-11T16:14:51;15.17;;;7.73;;
15946;SDS011;8072;52.554;7.966;2023-02-11T16:19:45;16.47;;;7.93;;
15946;SDS011;8072;52.554;7.966;2023-02-11T16:22:17;16.43;;;7.07;;
15946;SDS011;8072;52.554;7.966;2023-02-11T16:24:54;14.03;;;7.27;;
15946;SDS011;8072;52.554;7.966;2023-02-11T16:27:34;17.67;;;8.20;;
15946;SDS011;8072;52.554;7.966;2023-02-11T16:30:03;17.23;;;8.43;;
15946;SDS011;8072;52.554;7.966;2023-02-11T16:32:31;18.03;;;8.23;;
15946;SDS011;8072;52.554;7.966;2023-02-11T16:34:58;15.10;;;8.43;;
15946;SDS011;8072;52.554;7.966;2023-02-11T16:37:25;17.50;;;7.77;;
15946;SDS011;8072;52.554;7.966;2023-02-11T16:39:54;18.10;;;7.70;;
15946;SDS011;8072;52.554;7.966;2023-02-11T16:42:22;14.13;;;7.83;;
15946;SDS011;8072;52.554;7.966;2023-02-11T16:44:48;13.77;;;7.33;;
15946;SDS011;8072;52.554;7.966;2023-02-11T16:47:16;14.57;;;7.17;;
15946;SDS011;8072;52.554;7.966;2023-02-11T16:49:46;14.90;;;6.77;;
15946;SDS011;8072;52.554;7.966;2023-02-11T16:52:12;14.30;;;7.23;;
15946;SDS011;8072;52.554;7.966;2023-02-11T16:54:40;19.93;;;7.07;;
15946;SDS011;8072;52.554;7.966;2023-02-11T16:57:19;15.23;;;6.77;;
15946;SDS011;8072;52.554;7.966;2023-02-11T16:59:46;15.43;;;6.87;;
15946;SDS011;8072;52.554;7.966;2023-02-11T17:02:20;13.90;;;6.80;;
15946;SDS011;8072;52.554;7.966;2023-02-11T17:04:49;16.43;;;6.97;;
15946;SDS011;8072;52.554;7.966;2023-02-11T17:07:16;15.93;;;7.93;;
15946;SDS011;8072;52.554;7.966;2023-02-11T17:09:41;14.60;;;7.27;;
15946;SDS011;8072;52.554;7.966;2023-02-11T17:12:07;18.73;;;7.70;;
15946;SDS011;8072;52.554;7.966;2023-02-11T17:14:33;12.43;;;7.37;;
15946;SDS011;8072;52.554;7.966;2023-02-11T17:16:58;13.20;;;7.47;;
15946;SDS011;8072;52.554;7.966;2023-02-11T17:19:25;16.63;;;7.87;;
15946;SDS011;8072;52.554;7.966;2023-02-11T17:21:52;17.20;;;7.70;;
15946;SDS011;8072;52.554;7.966;2023-02-11T17:24:18;17.87;;;9.23;;
15946;SDS011;8072;52.554;7.966;2023-02-11T17:26:45;19.43;;;8.57;;
15946;SDS011;8072;52.554;7.966;2023-02-11T17:29:12;16.60;;;7.70;;
15946;SDS011;8072;52.554;7.966;2023-02-11T17:31:39;15.57;;;7.53;;
15946;SDS011;8072;52.554;7.966;2023-02-11T17:34:05;14.57;;;8.00;;
15946;SDS011;8072;52.554;7.966;2023-02-11T17:36:31;14.90;;;7.63;;
15946;SDS011;8072;52.554;7.966;2023-02-11T17:38:58;15.53;;;7.60;;
15946;SDS011;8072;52.554;7.966;2023-02-11T17:41:28;18.63;;;7.27;;
15946;SDS011;8072;52.554;7.966;2023-02-11T17:43:56;16.07;;;7.27;;
15946;SDS011;8072;52.554;7.966;2023-02-11T17:46:23;14.87;;;7.90;;
15946;SDS011;8072;52.554;7.966;2023-02-11T17:48:49;17.30;;;9.67;;
15946;SDS011;8072;52.554;7.966;2023-02-11T17:51:21;15.33;;;8.10;;
15946;SDS011;8072;52.554;7.966;2023-02-11T17:53:52;16.60;;;7.30;;
15946;SDS011;8072;52.554;7.966;2023-02-11T17:56:18;17.10;;;7.30;;
15946;SDS011;8072;52.554;7.966;2023-02-11T17:58:44;15.93;;;7.33;;
15946;SDS011;8072;52.554;7.966;2023-02-11T18:01:10;15.57;;;7.33;;
15946;SDS011;8072;52.554;7.966;2023-02-11T18:03:36;19.07;;;7.97;;
15946;SDS011;8072;52.554;7.966;2023-02-11T18:06:02;16.20;;;8.10;;
15946;SDS011;8072;52.554;7.966;2023-02-11T18:08:31;15.50;;;8.30;;